Latest Coastal Weather Observations for Cape Wessel

IDD60701

Issued at 1:01 pm CST Saturday 22 February 2020 (issued every 10 minutes, with the page automatically refreshed every 10 minutes)

About coastal observations | Map of coastal stations | Coastal observations for NT | Marine services | Other Formats
Station Details ID: 200786 Name: CAPE WESSEL Lat: -11.00 Lon: 136.76 Height: 18.0 m
Data from the previous 72 hours. | See also: Recent months at Cape Wessel
Date/Time
CST
Wind Sea
Height
m
Swell Vis
km
Cloud Weather Temp
°C
Press
hPa
Rain since
9am
mm
Dir  Spd
kts
Gust
kts
Height
m
Period
s
Dir
22/01:00pm SW 13 16 - - - - - - - 27.1 1005.2 9.8
22/12:30pm SSW 11 15 - - - - - - - 26.1 1005.8 9.8
22/12:00pm SSW 14 20 - - - - - - Recent precip. 25.5 1006.4 9.8
22/11:30am S 14 20 - - - - - - - 25.6 1006.7 9.4
22/11:00am S 14 29 - - - - - - - 25.8 1006.5 6.4
22/10:52am SSW 17 29 - - - - - - - 26.4 1007.1 3.8
22/10:30am SW 16 21 - - - - - - - 30.8 1006.7 0.0
22/10:00am SW 14 18 - - - - - - - 30.0 1006.7 0.0
22/09:30am SW 13 16 - - - - - - - 29.7 1006.5 0.0
22/09:00am SW 11 15 - - - - - - - 28.9 1006.4 3.6
22/08:30am SW 11 15 - - - - - - - 28.0 1006.5 3.6
22/08:00am SSW 14 19 - - - - - - - 26.9 1006.2 3.6
22/07:30am SW 14 20 - - - - - - - 26.6 1005.8 3.6
22/07:25am SW 10 20 - - - - - - - 27.1 1005.7 3.6
22/07:00am SW 5 6 - - - - - - - 26.6 1005.2 3.6
22/06:30am SW 7 9 - - - - - - - 26.4 1005.1 3.6
22/06:00am SSW 12 20 - - - - - - Rain 25.7 1005.0 3.4
22/05:30am SW 6 8 - - - - - - - 26.1 1004.8 1.8
22/05:00am SSW 14 21 - - - - - - - 26.0 1004.8 1.2
22/04:30am WSW 11 14 - - - - - - - 27.8 1004.6 0.4
22/04:00am WSW 10 13 - - - - - - - 27.5 1004.7 0.4
22/03:30am WSW 10 13 - - - - - - - 27.2 1004.4 0.4
22/03:00am WSW 9 11 - - - - - - - 26.8 1004.8 0.4
22/02:30am SW 9 11 - - - - - - - 26.3 1005.4 0.4
22/02:00am SW 9 11 - - - - - - - 26.0 1005.9 0.4
22/01:30am WSW 14 19 - - - - - - - 27.7 1006.3 0.2
22/01:00am W 14 17 - - - - - - - 28.4 1006.5 0.2
22/12:30am W 14 17 - - - - - - - 28.4 1006.5 0.2
22/12:00am W 12 14 - - - - - - - 28.7 1006.8 0.2
 
Date/Time
CST
Wind Sea
Height
m
Swell Vis
km
Cloud Weather Temp
°C
Press
hPa
Rain since
9am
mm
Dir  Spd
kts
Gust
kts
Height
m
Period
s
Dir
21/11:30pm W 14 17 - - - - - - - 28.5 1007.0 0.2
21/11:00pm W 15 19 - - - - - - - 28.3 1007.2 0.2
21/10:30pm W 14 17 - - - - - - - 28.2 1007.1 0.2
21/10:00pm WSW 11 15 - - - - - - - 28.2 1006.9 0.2
21/09:30pm WSW 10 13 - - - - - - - 28.3 1007.0 0.2
21/09:00pm WSW 11 14 - - - - - - - 28.2 1006.6 0.2
21/08:30pm WSW 11 13 - - - - - - - 28.2 1006.4 0.2
21/08:00pm WSW 11 14 - - - - - - - 28.1 1006.1 0.2
21/07:30pm SW 12 15 - - - - - - - 28.0 1005.8 0.2
21/07:00pm WSW 12 16 - - - - - - - 28.1 1005.4 0.2
21/06:30pm SW 13 17 - - - - - - - 27.9 1005.0 0.2
21/06:00pm WSW 16 22 - - - - - - - 28.9 1004.9 0.2
21/05:30pm W 16 19 - - - - - - - 29.4 1004.4 0.2
21/05:00pm W 14 17 - - - - - - - 29.9 1004.2 0.2
21/04:30pm W 15 17 - - - - - - - 30.1 1004.0 0.2
21/04:00pm W 12 15 - - - - - - - 30.8 1004.4 0.2
21/03:30pm W 14 17 - - - - - - - 31.3 1004.4 0.2
21/03:00pm W 13 16 - - - - - - - 31.4 1004.8 0.2
21/02:30pm W 13 17 - - - - - - - 31.7 1005.2 0.2
21/02:00pm WSW 15 18 - - - - - - - 32.2 1005.3 0.2
21/01:30pm WSW 14 17 - - - - - - - 32.7 1005.4 0.2
21/01:00pm WSW 14 18 - - - - - - - 32.1 1005.9 0.2
21/12:30pm W 15 19 - - - - - - - 31.5 1006.5 0.0
21/12:00pm W 17 20 - - - - - - - 30.7 1007.0 0.0
21/11:30am W 17 19 - - - - - - - 30.9 1007.1 0.0
21/11:00am W 15 19 - - - - - - - 31.2 1007.2 0.0
21/10:30am W 15 18 - - - - - - - 30.3 1007.6 0.0
21/10:00am W 15 18 - - - - - - - 30.0 1007.7 0.0
21/09:30am W 15 19 - - - - - - - 29.8 1007.6 0.0
21/09:00am W 17 19 - - - - - - - 29.5 1007.3 5.0
21/08:30am W 17 21 - - - - - - - 29.2 1006.9 5.0
21/08:00am W 16 19 - - - - - - - 29.0 1006.4 5.0
21/07:30am W 18 23 - - - - - - - 28.7 1006.2 5.0
21/07:00am W 18 23 - - - - - - - 28.5 1005.8 5.0
21/06:30am W 20 25 - - - - - - - 28.4 1005.3 5.0
21/06:00am W 23 27 - - - - - - Recent precip. 28.2 1004.9 5.0
21/05:30am W 23 29 - - - - - - - 27.9 1005.0 5.0
21/05:00am W 23 30 - - - - - - - 27.6 1004.7 3.8
21/04:30am W 21 26 - - - - - - - 29.0 1004.7 3.4
21/04:00am W 21 27 - - - - - - - 28.9 1004.8 3.4
21/03:30am W 21 26 - - - - - - - 29.0 1004.7 3.4
21/03:00am W 22 26 - - - - - - - 28.9 1005.3 3.4
21/02:30am W 20 24 - - - - - - - 28.7 1005.2 3.4
21/02:00am WNW 21 25 - - - - - - - 28.6 1005.7 3.4
21/01:30am WNW 21 26 - - - - - - - 28.6 1006.1 3.4
21/01:00am WNW 17 24 - - - - - - - 28.6 1006.7 3.4
21/12:30am WNW 20 26 - - - - - - - 28.5 1006.9 3.4
21/12:00am W 21 27 - - - - - - - 28.4 1007.5 3.4
 
Date/Time
CST
Wind Sea
Height
m
Swell Vis
km
Cloud Weather Temp
°C
Press
hPa
Rain since
9am
mm
Dir  Spd
kts
Gust
kts
Height
m
Period
s
Dir
20/11:30pm WNW 19 24 - - - - - - - 28.2 1007.8 3.4
20/11:00pm WNW 21 26 - - - - - - - 28.6 1007.6 3.4
20/10:30pm WNW 19 25 - - - - - - - 28.4 1007.3 3.4
20/10:00pm WNW 21 26 - - - - - - - 28.2 1006.7 3.4
20/09:30pm W 23 27 - - - - - - - 28.1 1006.4 3.4
20/09:00pm W 20 24 - - - - - - - 28.1 1006.1 3.4
20/08:30pm W 19 22 - - - - - - - 28.0 1005.8 3.4
20/08:00pm WNW 18 21 - - - - - - - 27.7 1005.4 3.4
20/07:30pm WNW 15 18 - - - - - - - 27.5 1005.1 3.0
20/07:00pm NW 13 16 - - - - - - - 26.5 1005.1 2.2
20/06:30pm NW 19 23 - - - - - - - 25.7 1005.2 1.4
20/06:00pm NW 13 16 - - - - - - Recent precip. 25.9 1005.6 0.8
20/05:30pm NNW 16 19 - - - - - - - 25.3 1005.8 0.4
20/05:05pm WNW 19 24 - - - - - - - 26.2 1006.0 0.0
20/05:00pm W 19 24 - - - - - - - 26.3 1005.8 0.0
20/04:30pm WSW 19 24 - - - - - - - 27.1 1005.3 0.0
20/04:00pm WNW 11 15 - - - - - - - 28.5 1005.5 0.0
20/03:30pm WNW 14 19 - - - - - - - 28.5 1005.5 0.0
20/03:00pm WNW 15 19 - - - - - - - 27.1 1005.6 0.0
20/02:34pm NW 19 31 - - - - - - - 28.0 1005.2 0.0
20/02:30pm NW 17 25 - - - - - - - 28.3 1005.2 0.0
20/02:00pm NNW 16 19 - - - - - - - 27.5 1005.5 0.0
20/01:30pm NW 16 23 - - - - - - - 27.7 1005.9 0.0
20/01:00pm W 11 14 - - - - - - - 30.4 1006.3 0.0
20/12:30pm WNW 10 14 - - - - - - - 30.4 1006.9 0.0
20/12:00pm W 11 14 - - - - - - - 30.7 1006.9 0.0
20/11:30am W 13 16 - - - - - - - 30.8 1007.1 0.0
20/11:00am W 14 16 - - - - - - - 29.8 1007.3 0.0
20/10:30am W 12 15 - - - - - - - 29.5 1007.4 0.0
20/10:00am W 12 14 - - - - - - - 28.9 1007.5 0.0
20/09:30am WSW 10 13 - - - - - - - 28.5 1007.4 0.0
20/09:00am SSW 7 9 - - - - - - Rain 27.3 1006.9 20.6
20/08:30am WSW 11 15 - - - - - - - 27.6 1006.8 19.4
20/08:00am SE 5 7 - - - - - - - 26.6 1006.5 19.4
20/07:41am SW 15 23 - - - - - - - 26.2 1006.5 14.0
20/07:30am W 12 16 - - - - - - - 27.7 1006.4 12.8
20/07:00am WNW 13 15 - - - - - - - 28.0 1005.9 11.8
20/06:30am WNW 13 15 - - - - - - - 27.9 1005.2 11.8
20/06:00am W 13 15 - - - - - - - 27.8 1004.6 11.8
20/05:30am WNW 12 15 - - - - - - - 27.5 1004.5 11.8
20/05:00am WNW 10 12 - - - - - - - 27.5 1004.5 11.8
20/04:30am WNW 10 13 - - - - - - - 27.1 1004.2 10.8
20/04:15am WNW 18 31 - - - - - - - 26.0 1004.0 3.8
20/04:00am WNW 13 16 - - - - - - - 27.8 1003.9 0.0
20/03:30am WNW 15 19 - - - - - - - 27.3 1003.9 0.0
20/03:00am W 17 20 - - - - - - - 28.0 1003.9 0.0
20/02:30am WSW 15 19 - - - - - - - 28.5 1004.3 0.0
20/02:00am WNW 16 20 - - - - - - - 29.3 1004.5 0.0
20/01:30am WNW 14 18 - - - - - - - 29.3 1004.8 0.0
20/01:00am WNW 15 19 - - - - - - - 29.2 1005.5 0.0
20/12:30am WNW 15 18 - - - - - - - 29.2 1005.8 0.0
20/12:00am WNW 15 18 - - - - - - - 29.2 1006.1 0.0
 
Date/Time
CST
Wind Sea
Height
m
Swell Vis
km
Cloud Weather Temp
°C
Press
hPa
Rain since
9am
mm
Dir  Spd
kts
Gust
kts
Height
m
Period
s
Dir
19/11:30pm W 14 16 - - - - - - - 29.2 1006.4 0.0
19/11:00pm W 14 19 - - - - - - - 29.3 1006.5 0.0
19/10:30pm W 15 18 - - - - - - - 29.4 1006.6 0.0
19/10:00pm W 16 19 - - - - - - - 29.4 1006.5 0.0
19/09:30pm W 17 20 - - - - - - - 29.5 1006.6 0.0
19/09:00pm WNW 16 19 - - - - - - - 29.4 1006.6 0.0
19/08:30pm WNW 13 17 - - - - - - - 29.3 1006.4 0.0
19/08:00pm WNW 14 18 - - - - - - - 29.4 1005.8 0.0
19/07:30pm WNW 14 17 - - - - - - - 29.4 1005.2 0.0
19/07:00pm WNW 13 17 - - - - - - - 29.4 1004.8 0.0
19/06:30pm W 14 16 - - - - - - - 29.7 1004.3 0.0
19/06:00pm WNW 13 15 - - - - - - - 29.9 1003.6 0.0
19/05:30pm W 14 16 - - - - - - - 30.5 1003.5 0.0
19/05:00pm W 14 16 - - - - - - - 31.3 1003.2 0.0
19/04:30pm W 14 17 - - - - - - - 32.2 1003.2 0.0
19/04:00pm WNW 15 18 - - - - - - - 32.9 1003.8 0.0
19/03:30pm W 15 19 - - - - - - - 32.8 1003.9 0.0
19/03:00pm W 14 18 - - - - - - - 32.3 1004.2 0.0
19/02:30pm W 15 18 - - - - - - - 32.1 1004.8 0.0
19/02:00pm W 15 18 - - - - - - - 32.0 1004.9 0.0
19/01:30pm WNW 16 19 - - - - - - - 32.1 1005.0 0.0

Other formats

Comma delimited format used in spreadsheet applications
http://www.bom.gov.au/fwo/IDD60701/IDD60701.94147.axf

JavaScript Object Notation format (JSON) in row-major order
http://www.bom.gov.au/fwo/IDD60701/IDD60701.94147.json

Data quality

Most of these data are generated automatically and are frequently updated. Quality checks on data are not normally performed. It is possible for incorrect values to appear. Refer to information at About Latest Weather Observations and please check the disclaimer before using these data.